Time;durP1;ratioP1;P1;durP2;ratioP2;P2;SDS_P1;SDS_P2;PMS_P1;PMS_P2;Temp;Humidity;BMP_temperature;BMP_pressure;BME280_temperature;BME280_humidity;BME280_pressure;Samples;Min_cycle;Max_cycle;Signal;HPM_P1;HPM_P2
2023/09/18 00:02:16;;;;;;;5.25;2.22;;;;;20.30;93748.00;;;;7394545;19;20152;-78
2023/09/18 00:04:45;;;;;;;6.47;2.33;;;;;20.20;93740.00;;;;7399025;19;20141;-78
2023/09/18 00:07:21;;;;;;;4.43;2.25;;;;;20.20;93735.00;;;;7400826;19;20596;-77
2023/09/18 00:09:55;;;;;;;4.20;2.08;;;;;20.20;93727.00;;;;7399259;19;20145;-79
2023/09/18 00:12:30;;;;;;;4.63;2.20;;;;;20.30;93736.00;;;;7396616;19;20143;-79
2023/09/18 00:15:06;;;;;;;5.57;2.45;;;;;20.30;93730.00;;;;7398788;19;20156;-79
2023/09/18 00:17:33;;;;;;;2.38;2.17;;;;;20.50;93728.00;;;;7399939;19;20215;-78
2023/09/18 00:20:09;;;;;;;5.75;2.25;;;;;20.60;93723.00;;;;7394535;19;20124;-79
2023/09/18 00:22:36;;;;;;;4.45;2.13;;;;;20.60;93722.00;;;;7399842;19;20533;-80
2023/09/18 00:25:11;;;;;;;6.43;2.20;;;;;20.60;93729.00;;;;7397876;19;20144;-78
2023/09/18 00:27:45;;;;;;;3.67;2.20;;;;;20.80;93728.00;;;;7399680;19;20228;-80
2023/09/18 00:30:19;;;;;;;5.53;2.40;;;;;20.80;93723.00;;;;7395261;19;20144;-77
2023/09/18 00:32:54;;;;;;;5.28;1.95;;;;;20.90;93716.00;;;;7390586;19;20179;-78
2023/09/18 00:35:23;;;;;;;8.05;2.60;;;;;20.90;93707.00;;;;7395864;19;20173;-78
2023/09/18 00:38:06;;;;;;;3.80;2.17;;;;;20.90;93713.00;;;;7399530;19;20163;-77
2023/09/18 00:40:34;;;;;;;4.45;2.28;;;;;20.90;93714.00;;;;7399994;19;20218;-78
2023/09/18 00:43:10;;;;;;;4.25;2.05;;;;;20.90;93713.00;;;;7400899;19;20136;-78
2023/09/18 00:45:47;;;;;;;4.85;2.13;;;;;20.90;93704.00;;;;7399317;19;20159;-80
2023/09/18 00:48:22;;;;;;;7.22;2.40;;;;;21.00;93690.00;;;;7400424;19;20441;-79
2023/09/18 00:50:57;;;;;;;3.55;2.20;;;;;21.20;93686.00;;;;7397759;19;20137;-81
2023/09/18 00:53:32;;;;;;;9.65;2.33;;;;;21.40;93687.00;;;;7398405;19;20132;-77
2023/09/18 00:56:05;;;;;;;6.15;2.00;;;;;21.50;93681.00;;;;7398131;19;20145;-78
2023/09/18 00:58:40;;;;;;;3.55;2.00;;;;;21.50;93688.00;;;;7398239;19;20144;-79
2023/09/18 01:01:22;;;;;;;6.70;2.08;;;;;21.50;93685.00;;;;7398642;19;20148;-79
2023/09/18 01:03:53;;;;;;;2.67;2.20;;;;;21.40;93686.00;;;;7398041;19;20128;-79
2023/09/18 01:06:30;;;;;;;12.00;2.83;;;;;21.50;93694.00;;;;7397877;19;20190;-81
2023/09/18 01:08:59;;;;;;;4.43;2.10;;;;;21.50;93697.00;;;;7399342;19;20528;-82
2023/09/18 01:11:47;;;;;;;4.50;1.98;;;;;21.60;93697.00;;;;7397599;19;20448;-77
2023/09/18 01:14:40;;;;;;;4.03;2.13;;;;;21.80;93689.00;;;;7399574;19;20133;-79
2023/09/18 01:17:16;;;;;;;5.95;2.10;;;;;21.90;93689.00;;;;7397821;19;20137;-77
2023/09/18 01:19:49;;;;;;;7.53;2.15;;;;;22.00;93693.00;;;;7397175;19;20136;-75
2023/09/18 01:22:24;;;;;;;7.00;1.92;;;;;22.10;93710.00;;;;7398264;19;20607;-79
2023/09/18 01:24:51;;;;;;;7.90;2.55;;;;;22.10;93713.00;;;;7399782;19;20136;-76
2023/09/18 01:27:26;;;;;;;6.22;2.00;;;;;22.20;93729.00;;;;7397628;19;20132;-77
2023/09/18 01:29:54;;;;;;;6.65;1.95;;;;;22.20;93732.00;;;;7395775;19;20630;-73
2023/09/18 01:32:32;;;;;;;4.45;2.30;;;;;22.10;93723.00;;;;7395306;19;20133;-76
2023/09/18 01:35:15;;;;;;;6.75;2.10;;;;;22.10;93728.00;;;;7391499;19;20152;-77
2023/09/18 01:37:57;;;;;;;4.30;1.98;;;;;22.10;93724.00;;;;7396690;19;20164;-75
2023/09/18 01:40:32;;;;;;;10.38;2.65;;;;;21.40;93716.00;;;;7397370;19;20153;-73
2023/09/18 01:43:08;;;;;;;9.32;2.47;;;;;20.60;93694.00;;;;7397194;19;20125;-75
2023/09/18 01:45:44;;;;;;;7.53;2.60;;;;;19.90;93655.00;;;;7394326;19;20132;-74
2023/09/18 01:48:19;;;;;;;8.30;2.60;;;;;19.30;93678.00;;;;7394535;19;20150;-74
2023/09/18 01:50:53;;;;;;;8.30;3.05;;;;;18.80;93693.00;;;;7397256;19;20560;-73
2023/09/18 01:53:27;;;;;;;11.02;2.47;;;;;18.60;93694.00;;;;7396953;19;20163;-76
2023/09/18 01:56:02;;;;;;;11.82;3.00;;;;;18.40;93703.00;;;;7394329;19;20136;-78
2023/09/18 01:58:30;;;;;;;11.50;2.70;;;;;18.20;93704.00;;;;7397150;19;20467;-74
2023/09/18 02:01:01;;;;;;;7.72;2.90;;;;;18.20;93722.00;;;;7394672;19;20259;-74
2023/09/18 02:03:36;;;;;;;9.68;2.70;;;;;18.20;93719.00;;;;7395770;19;20132;-75
2023/09/18 02:06:24;;;;;;;10.68;3.25;;;;;18.30;93741.00;;;;7394153;19;20136;-75
2023/09/18 02:08:58;;;;;;;9.48;2.80;;;;;18.50;93726.00;;;;7396220;19;20185;-74
2023/09/18 02:11:27;;;;;;;9.27;3.08;;;;;18.60;93726.00;;;;7394830;19;20133;-75
2023/09/18 02:14:03;;;;;;;9.38;2.78;;;;;18.70;93713.00;;;;7394745;19;20220;-76
2023/09/18 02:16:46;;;;;;;6.93;3.08;;;;;18.90;93713.00;;;;7395250;19;20566;-77
2023/09/18 02:19:21;;;;;;;10.50;2.90;;;;;19.00;93709.00;;;;7393399;19;20615;-76
2023/09/18 02:21:48;;;;;;;10.38;2.97;;;;;19.10;93699.00;;;;7395725;19;20154;-77
2023/09/18 02:24:23;;;;;;;9.52;3.05;;;;;19.10;93705.00;;;;7394540;19;20152;-77
2023/09/18 02:26:51;;;;;;;6.05;2.47;;;;;19.00;93697.00;;;;7400983;19;20153;-78
2023/09/18 02:29:26;;;;;;;8.80;2.35;;;;;19.10;93698.00;;;;7401737;19;20587;-77
2023/09/18 02:31:53;;;;;;;8.27;2.58;;;;;19.10;93701.00;;;;7398820;19;20132;-79
2023/09/18 02:34:28;;;;;;;7.93;2.55;;;;;19.00;93700.00;;;;7401405;19;20128;-78
2023/09/18 02:37:08;;;;;;;14.07;2.92;;;;;18.90;93696.00;;;;7400408;19;20155;-78
2023/09/18 02:39:42;;;;;;;6.78;2.50;;;;;19.20;93692.00;;;;7402405;19;20730;-78
2023/09/18 02:42:17;;;;;;;5.95;2.97;;;;;19.20;93682.00;;;;7401905;19;20468;-78
2023/09/18 02:44:45;;;;;;;6.50;2.33;;;;;19.20;93678.00;;;;7400944;19;20167;-77
2023/09/18 02:47:19;;;;;;;11.25;2.70;;;;;19.30;93664.00;;;;7402416;19;20129;-77
2023/09/18 02:49:47;;;;;;;13.13;2.63;;;;;19.60;93651.00;;;;7400382;19;20138;-76
2023/09/18 02:52:20;;;;;;;6.55;2.22;;;;;19.70;93634.00;;;;7399130;19;20144;-75
2023/09/18 02:54:51;;;;;;;13.65;2.95;;;;;19.90;93637.00;;;;7402605;19;20128;-79
2023/09/18 02:57:20;;;;;;;5.10;2.50;;;;;20.00;93633.00;;;;7399741;19;20497;-78
2023/09/18 02:59:55;;;;;;;9.20;2.42;;;;;20.10;93620.00;;;;7400561;19;20196;-78
2023/09/18 03:02:22;;;;;;;11.48;2.90;;;;;20.20;93611.00;;;;7399265;19;20179;-76
2023/09/18 03:04:57;;;;;;;7.38;2.75;;;;;20.30;93615.00;;;;7402272;19;20132;-76
2023/09/18 03:07:24;;;;;;;8.20;2.30;;;;;20.40;93616.00;;;;7400932;19;20125;-77
2023/09/18 03:09:59;;;;;;;7.95;2.60;;;;;20.30;93618.00;;;;7399769;19;20224;-77
2023/09/18 03:12:26;;;;;;;12.45;2.50;;;;;20.50;93628.00;;;;7399994;19;20140;-76
2023/09/18 03:15:01;;;;;;;10.13;3.33;;;;;20.60;93643.00;;;;7400635;19;20568;-76
2023/09/18 03:17:29;;;;;;;11.38;2.60;;;;;20.50;93647.00;;;;7400148;19;20151;-78
2023/09/18 03:20:05;;;;;;;10.25;2.95;;;;;20.60;93663.00;;;;7399383;19;20165;-76
2023/09/18 03:22:40;;;;;;;12.65;3.20;;;;;20.60;93674.00;;;;7402581;19;20188;-75
2023/09/18 03:25:08;;;;;;;21.63;3.40;;;;;20.80;93689.00;;;;7397844;19;20155;-76
2023/09/18 03:27:35;;;;;;;13.18;3.17;;;;;20.80;93694.00;;;;7399487;19;20519;-77
2023/09/18 03:30:12;;;;;;;14.77;2.63;;;;;20.90;93703.00;;;;7402111;19;20144;-75
2023/09/18 03:32:40;;;;;;;5.93;2.75;;;;;21.00;93711.00;;;;7400252;19;20161;-75
2023/09/18 03:35:22;;;;;;;12.88;3.63;;;;;21.00;93720.00;;;;7399578;19;20646;-77
2023/09/18 03:37:56;;;;;;;11.13;3.45;;;;;21.00;93729.00;;;;7401337;19;20154;-76
2023/09/18 03:40:33;;;;;;;14.88;3.55;;;;;21.00;93736.00;;;;7402506;19;20183;-76
2023/09/18 03:43:00;;;;;;;16.88;3.70;;;;;21.10;93762.00;;;;7401954;19;20197;-75
2023/09/18 03:45:36;;;;;;;17.58;3.97;;;;;21.20;93774.00;;;;7401328;19;20132;-77
2023/09/18 03:48:10;;;;;;;11.88;3.40;;;;;20.80;93795.00;;;;7402072;19;20610;-74
2023/09/18 03:50:48;;;;;;;20.15;3.20;;;;;20.30;93818.00;;;;7398700;19;20263;-76
2023/09/18 03:53:21;;;;;;;10.63;3.08;;;;;19.80;93819.00;;;;7400098;19;20128;-76
2023/09/18 03:55:49;;;;;;;8.50;3.15;;;;;18.00;93829.00;;;;7402162;19;20500;-80
2023/09/18 03:58:23;;;;;;;14.38;2.65;;;;;17.10;93820.00;;;;7398820;19;20148;-77
2023/09/18 04:00:51;;;;;;;6.85;3.03;;;;;16.70;93809.00;;;;7400038;19;20137;-74
2023/09/18 04:03:26;;;;;;;8.00;2.60;;;;;16.50;93790.00;;;;7399481;19;20144;-75
2023/09/18 04:05:54;;;;;;;9.98;2.25;;;;;16.40;93765.00;;;;7395437;19;20164;-75
2023/09/18 04:08:29;;;;;;;8.25;2.78;;;;;16.20;93718.00;;;;7401264;19;20196;-73
2023/09/18 04:10:57;;;;;;;6.78;1.95;;;;;16.30;93726.00;;;;7399641;19;20502;-75
2023/09/18 04:13:34;;;;;;;6.93;3.00;;;;;16.20;93722.00;;;;7396400;19;20640;-76
2023/09/18 04:16:07;;;;;;;9.27;2.70;;;;;16.20;93651.00;;;;7398725;19;20180;-75
2023/09/18 04:18:35;;;;;;;5.95;2.50;;;;;16.20;93683.00;;;;7400328;19;20163;-73
2023/09/18 04:21:10;;;;;;;8.45;2.47;;;;;16.20;93711.00;;;;7397286;19;20152;-76
2023/09/18 04:23:46;;;;;;;10.63;3.08;;;;;16.10;93657.00;;;;7398048;19;20179;-75
2023/09/18 04:26:20;;;;;;;9.23;3.10;;;;;16.20;93648.00;;;;7399497;19;20132;-74
2023/09/18 04:28:51;;;;;;;8.45;2.65;;;;;16.10;93651.00;;;;7397407;19;20206;-74
2023/09/18 04:31:27;;;;;;;11.63;2.70;;;;;16.10;93629.00;;;;7398399;19;20147;-75
2023/09/18 04:34:02;;;;;;;6.68;2.50;;;;;16.00;93608.00;;;;7395977;19;20144;-77
2023/09/18 04:36:43;;;;;;;9.13;2.80;;;;;16.00;93607.00;;;;7395983;19;20777;-78
2023/09/18 04:39:24;;;;;;;4.28;2.28;;;;;15.90;93589.00;;;;7398999;19;20622;-76
2023/09/18 04:41:58;;;;;;;7.03;2.45;;;;;16.00;93590.00;;;;7399169;19;20138;-76
2023/09/18 04:44:27;;;;;;;6.28;2.70;;;;;16.00;93581.00;;;;7397929;19;20121;-77
2023/09/18 04:47:03;;;;;;;7.30;2.55;;;;;16.10;93582.00;;;;7398418;19;20576;-77
2023/09/18 04:49:37;;;;;;;7.13;2.80;;;;;16.10;93587.00;;;;7395801;19;20227;-75
2023/09/18 04:52:05;;;;;;;5.50;2.13;;;;;16.00;93604.00;;;;7394452;19;20156;-76
2023/09/18 04:54:33;;;;;;;11.07;3.17;;;;;16.00;93606.00;;;;7393781;19;20160;-79
2023/09/18 04:57:08;;;;;;;6.63;2.55;;;;;16.10;93603.00;;;;7396778;19;20132;-79
2023/09/18 04:59:45;;;;;;;7.72;2.90;;;;;16.20;93606.00;;;;7397241;19;20149;-76
2023/09/18 05:02:13;;;;;;;8.15;2.67;;;;;16.20;93611.00;;;;7392303;19;20176;-78
2023/09/18 05:04:47;;;;;;;8.55;3.05;;;;;16.20;93604.00;;;;7397191;19;20622;-77
2023/09/18 05:07:15;;;;;;;11.23;3.00;;;;;16.30;93621.00;;;;7398042;19;20151;-76
2023/09/18 05:09:49;;;;;;;6.25;2.50;;;;;16.30;93618.00;;;;7396839;19;20492;-78
2023/09/18 05:12:16;;;;;;;8.77;2.97;;;;;16.20;93618.00;;;;7396281;19;20738;-80
2023/09/18 05:14:44;;;;;;;10.52;2.25;;;;;16.30;93623.00;;;;7393402;19;20492;-76
2023/09/18 05:17:19;;;;;;;5.70;2.60;;;;;16.20;93624.00;;;;7395424;19;20839;-78
2023/09/18 05:19:53;;;;;;;7.95;2.70;;;;;16.20;93633.00;;;;7397655;19;20136;-78
2023/09/18 05:22:29;;;;;;;10.85;2.65;;;;;16.30;93653.00;;;;7384110;19;20196;-78
2023/09/18 05:24:57;;;;;;;7.60;2.75;;;;;16.30;93660.00;;;;7383949;19;20580;-81
2023/09/18 05:27:44;;;;;;;7.93;2.63;;;;;16.20;93656.00;;;;7391870;19;20194;-76
2023/09/18 05:30:38;;;;;;;6.40;2.80;;;;;16.10;93649.00;;;;7392007;19;20514;-77
2023/09/18 05:33:13;;;;;;;6.20;2.67;;;;;16.20;93645.00;;;;7385638;19;20152;-78
2023/09/18 05:35:44;;;;;;;5.55;2.42;;;;;16.20;93638.00;;;;7388667;19;20228;-75
2023/09/18 05:38:18;;;;;;;7.85;2.78;;;;;16.20;93634.00;;;;7389891;19;20147;-77
2023/09/18 05:40:47;;;;;;;12.30;2.63;;;;;16.20;93635.00;;;;7390266;19;20151;-77
2023/09/18 05:43:21;;;;;;;9.07;2.38;;;;;16.30;93633.00;;;;7392482;19;20165;-77
2023/09/18 05:45:57;;;;;;;8.35;2.65;;;;;16.30;93636.00;;;;7389041;19;20216;-76
2023/09/18 05:48:32;;;;;;;5.38;2.45;;;;;16.40;93630.00;;;;7387350;19;20154;-77
2023/09/18 05:51:00;;;;;;;9.55;3.00;;;;;16.40;93636.00;;;;7390927;19;20125;-77
2023/09/18 05:53:35;;;;;;;7.43;2.42;;;;;16.30;93631.00;;;;7390170;19;20152;-76
2023/09/18 05:56:04;;;;;;;10.57;2.30;;;;;16.50;93637.00;;;;7389383;19;20178;-77
2023/09/18 05:58:39;;;;;;;7.13;2.22;;;;;16.50;93634.00;;;;7389509;19;20160;-74
2023/09/18 06:01:07;;;;;;;4.93;1.65;;;;;16.60;93625.00;;;;7392414;19;20491;-77
2023/09/18 06:03:36;;;;;;;4.28;1.75;;;;;16.50;93630.00;;;;7391266;19;20503;-74
2023/09/18 06:06:10;;;;;;;5.28;2.05;;;;;16.50;93644.00;;;;7391028;19;20144;-75
2023/09/18 06:08:48;;;;;;;7.93;2.20;;;;;16.70;93644.00;;;;7389724;19;20154;-76
2023/09/18 06:11:24;;;;;;;9.23;1.95;;;;;16.60;93643.00;;;;7389998;19;20124;-77
2023/09/18 06:13:52;;;;;;;6.80;1.83;;;;;16.70;93645.00;;;;7389868;19;20145;-77
2023/09/18 06:16:27;;;;;;;8.80;1.67;;;;;16.80;93663.00;;;;7391501;19;20144;-77
2023/09/18 06:19:02;;;;;;;3.90;1.40;;;;;16.80;93658.00;;;;7389955;19;20192;-78
2023/09/18 06:21:37;;;;;;;7.13;1.70;;;;;17.10;93665.00;;;;7390653;19;20158;-76
2023/09/18 06:24:12;;;;;;;5.78;1.60;;;;;16.80;93659.00;;;;7392432;19;20129;-75
2023/09/18 06:26:51;;;;;;;11.68;1.88;;;;;16.90;93654.00;;;;7391062;19;20499;-77
2023/09/18 06:29:19;;;;;;;2.70;1.30;;;;;16.90;93671.00;;;;7390039;19;20136;-76
2023/09/18 06:31:55;;;;;;;4.35;1.27;;;;;16.90;93655.00;;;;7386902;19;20159;-77
2023/09/18 06:34:23;;;;;;;3.85;1.50;;;;;16.90;93666.00;;;;7387487;19;20141;-78
2023/09/18 06:37:06;;;;;;;3.40;1.40;;;;;16.80;93656.00;;;;7382556;19;20204;-77
2023/09/18 06:39:47;;;;;;;4.13;1.60;;;;;16.70;93663.00;;;;7385331;19;20157;-76
2023/09/18 06:42:22;;;;;;;5.15;1.20;;;;;16.80;93664.00;;;;7386023;19;20125;-76
2023/09/18 06:44:57;;;;;;;2.25;1.33;;;;;16.80;93655.00;;;;7385062;19;20140;-79
2023/09/18 06:47:31;;;;;;;5.82;1.80;;;;;16.80;93646.00;;;;7382862;19;20144;-77
2023/09/18 06:50:01;;;;;;;2.42;1.13;;;;;16.60;93649.00;;;;7384431;19;20142;-76
2023/09/18 06:52:35;;;;;;;5.18;1.40;;;;;16.80;93649.00;;;;7380373;19;20140;-78
2023/09/18 06:55:05;;;;;;;4.38;1.25;;;;;16.80;93637.00;;;;7380774;19;20160;-78
2023/09/18 06:57:40;;;;;;;8.48;1.20;;;;;16.60;93664.00;;;;7378052;19;20149;-76
2023/09/18 07:00:09;;;;;;;3.30;1.20;;;;;16.70;93683.00;;;;7382570;19;20129;-76
2023/09/18 07:02:44;;;;;;;3.13;1.20;;;;;16.90;93684.00;;;;7382798;19;20156;-75
2023/09/18 07:05:25;;;;;;;2.22;1.20;;;;;16.70;93683.00;;;;7380748;19;20155;-79
2023/09/18 07:08:00;;;;;;;3.60;1.17;;;;;16.90;93678.00;;;;7381027;19;20232;-77
2023/09/18 07:10:36;;;;;;;3.70;1.20;;;;;16.70;93693.00;;;;7380103;19;20161;-78
2023/09/18 07:13:11;;;;;;;1.20;1.10;;;;;16.90;93692.00;;;;7384741;19;20604;-77
2023/09/18 07:15:39;;;;;;;1.63;1.13;;;;;17.00;93673.00;;;;7388012;19;20144;-76
2023/09/18 07:18:15;;;;;;;2.42;0.95;;;;;17.10;93683.00;;;;7386619;19;20148;-78
2023/09/18 07:20:47;;;;;;;2.13;1.02;;;;;17.00;93665.00;;;;7384764;19;20153;-77
2023/09/18 07:23:21;;;;;;;1.52;0.80;;;;;17.10;93663.00;;;;7381922;19;23233;-77
2023/09/18 07:25:55;;;;;;;4.18;1.10;;;;;17.10;93678.00;;;;7387601;19;20168;-73
2023/09/18 07:28:24;;;;;;;1.98;1.10;;;;;17.00;93674.00;;;;7386550;19;20507;-74
2023/09/18 07:31:07;;;;;;;2.47;1.13;;;;;17.10;93669.00;;;;7387164;19;20531;-75
2023/09/18 07:33:35;;;;;;;1.10;0.80;;;;;16.70;93672.00;;;;7385869;19;20467;-77
2023/09/18 07:36:16;;;;;;;1.15;1.02;;;;;16.70;93663.00;;;;7386249;19;20176;-77
2023/09/18 07:38:51;;;;;;;1.83;1.02;;;;;16.80;93672.00;;;;7386850;19;20180;-78
2023/09/18 07:41:26;;;;;;;1.63;1.02;;;;;16.70;93663.00;;;;7388096;19;20629;-74
2023/09/18 07:44:01;;;;;;;2.53;0.90;;;;;16.90;93668.00;;;;7386940;19;20143;-77
2023/09/18 07:46:37;;;;;;;1.25;0.75;;;;;16.90;93677.00;;;;7386117;19;20140;-77
2023/09/18 07:49:05;;;;;;;5.95;1.17;;;;;17.00;93665.00;;;;7386907;19;20608;-75
2023/09/18 07:51:40;;;;;;;2.05;1.05;;;;;17.10;93670.00;;;;7386177;19;20424;-76
2023/09/18 07:54:08;;;;;;;1.73;0.70;;;;;17.30;93670.00;;;;7386143;19;20141;-76
2023/09/18 07:56:43;;;;;;;1.73;0.90;;;;;17.40;93675.00;;;;7388134;19;20143;-76
2023/09/18 07:59:18;;;;;;;2.53;0.88;;;;;17.40;93683.00;;;;7386829;19;20502;-75
2023/09/18 08:01:53;;;;;;;1.08;0.75;;;;;17.50;93690.00;;;;7385472;19;20192;-72
2023/09/18 08:04:21;;;;;;;1.42;1.02;;;;;17.50;93707.00;;;;7384629;19;20572;-73
2023/09/18 08:06:56;;;;;;;0.77;0.77;;;;;17.60;93709.00;;;;7386353;19;20687;-71
2023/09/18 08:09:31;;;;;;;1.80;0.88;;;;;17.50;93720.00;;;;7386272;19;20152;-72
2023/09/18 08:12:08;;;;;;;2.40;0.80;;;;;17.40;93726.00;;;;7384631;19;20156;-71
2023/09/18 08:14:37;;;;;;;1.92;0.80;;;;;17.40;93740.00;;;;7385921;19;20141;-71
2023/09/18 08:17:12;;;;;;;1.55;0.90;;;;;17.30;93742.00;;;;7385020;19;20147;-72
2023/09/18 08:19:55;;;;;;;7.25;1.10;;;;;17.10;93750.00;;;;7387309;19;20320;-72
2023/09/18 08:22:23;;;;;;;2.92;1.10;;;;;16.90;93747.00;;;;7384016;19;20141;-76
2023/09/18 08:24:58;;;;;;;3.13;1.10;;;;;16.90;93738.00;;;;7381525;19;20161;-70
2023/09/18 08:27:33;;;;;;;3.40;1.20;;;;;16.90;93737.00;;;;7384317;19;20165;-72
2023/09/18 08:30:01;;;;;;;3.22;1.30;;;;;16.80;93737.00;;;;7385300;19;20160;-71
2023/09/18 08:32:30;;;;;;;3.05;1.30;;;;;16.70;93735.00;;;;7385886;19;20176;-70
2023/09/18 08:35:06;;;;;;;2.22;1.23;;;;;16.70;93739.00;;;;7385832;19;20155;-73
2023/09/18 08:37:48;;;;;;;2.67;1.30;;;;;16.60;93726.00;;;;7381289;19;20187;-74
2023/09/18 08:40:25;;;;;;;2.85;1.38;;;;;16.50;93720.00;;;;7381908;19;21145;-72
2023/09/18 08:43:00;;;;;;;3.45;1.80;;;;;16.40;93733.00;;;;7385402;19;20168;-70
2023/09/18 08:45:52;;;;;;;4.45;1.30;;;;;16.30;93751.00;;;;7379851;19;20145;-71
2023/09/18 08:48:37;;;;;;;2.92;1.10;;;;;16.20;93759.00;;;;7385988;19;20224;-74
2023/09/18 08:51:13;;;;;;;1.95;1.40;;;;;16.10;93780.00;;;;7383150;19;20600;-72
2023/09/18 08:53:50;;;;;;;4.93;1.95;;;;;16.00;93779.00;;;;7385826;19;20526;-72
2023/09/18 08:56:27;;;;;;;3.30;1.23;;;;;15.90;93786.00;;;;7383507;19;20140;-72
2023/09/18 08:59:02;;;;;;;5.90;1.40;;;;;15.90;93792.00;;;;7384483;19;20128;-72
2023/09/18 09:01:32;;;;;;;5.05;1.30;;;;;16.00;93795.00;;;;7385787;19;20583;-72
2023/09/18 09:04:06;;;;;;;1.92;1.45;;;;;15.90;93798.00;;;;7386442;19;21495;-71
2023/09/18 09:06:36;;;;;;;5.78;1.45;;;;;15.90;93794.00;;;;7388564;19;20141;-73
2023/09/18 09:09:13;;;;;;;3.35;1.40;;;;;15.80;93783.00;;;;7385209;19;20148;-73
2023/09/18 09:11:50;;;;;;;2.75;1.70;;;;;15.80;93794.00;;;;7386063;19;20120;-75
2023/09/18 09:14:28;;;;;;;4.47;1.70;;;;;15.90;93783.00;;;;7385603;19;20145;-75
2023/09/18 09:16:57;;;;;;;5.00;1.60;;;;;16.00;93782.00;;;;7384919;19;20169;-74
2023/09/18 09:19:38;;;;;;;2.60;1.35;;;;;16.10;93782.00;;;;7385128;19;20136;-75
2023/09/18 09:22:09;;;;;;;3.35;1.52;;;;;15.90;93774.00;;;;7385550;19;20143;-73
2023/09/18 09:24:44;;;;;;;5.43;1.67;;;;;16.00;93767.00;;;;7381739;19;20136;-73
2023/09/18 09:27:18;;;;;;;3.85;1.58;;;;;16.00;93775.00;;;;7383527;19;20222;-74
2023/09/18 09:29:59;;;;;;;6.28;1.75;;;;;16.10;93768.00;;;;7385632;19;20144;-73
2023/09/18 09:32:33;;;;;;;5.70;1.85;;;;;16.10;93779.00;;;;7384365;19;20159;-74
2023/09/18 09:35:06;;;;;;;4.03;1.90;;;;;16.20;93783.00;;;;7383536;19;20160;-72
2023/09/18 09:37:51;;;;;;;3.28;1.60;;;;;16.30;93778.00;;;;7381335;19;20924;-74
2023/09/18 09:40:25;;;;;;;2.97;1.65;;;;;16.30;93772.00;;;;7385273;19;20504;-77
2023/09/18 09:43:00;;;;;;;2.55;1.50;;;;;16.20;93754.00;;;;7386015;19;20180;-80
2023/09/18 09:45:30;;;;;;;3.58;1.65;;;;;16.10;93754.00;;;;7383252;19;20136;-73
2023/09/18 09:48:00;;;;;;;5.30;1.40;;;;;16.20;93741.00;;;;7382601;19;20158;-76
2023/09/18 09:50:48;;;;;;;3.10;1.25;;;;;16.20;93745.00;;;;7383711;19;20584;-73
2023/09/18 09:53:18;;;;;;;2.72;1.40;;;;;16.10;93750.00;;;;7382581;19;20133;-74
2023/09/18 09:55:56;;;;;;;1.48;1.10;;;;;15.90;93754.00;;;;7384346;19;20203;-73
2023/09/18 09:58:30;;;;;;;1.60;1.38;;;;;15.90;93751.00;;;;7386469;19;20147;-76
2023/09/18 10:01:10;;;;;;;2.85;1.20;;;;;15.70;93754.00;;;;7380327;19;20254;-74
2023/09/18 10:03:46;;;;;;;1.92;1.13;;;;;15.70;93747.00;;;;7384551;19;20181;-73
2023/09/18 10:06:15;;;;;;;2.30;1.30;;;;;15.80;93743.00;;;;7384611;19;20136;-75
2023/09/18 10:08:49;;;;;;;4.22;1.15;;;;;15.90;93743.00;;;;7386044;19;20155;-74
2023/09/18 10:11:26;;;;;;;3.47;1.10;;;;;16.00;93732.00;;;;7383102;19;20137;-74
2023/09/18 10:14:07;;;;;;;2.05;1.00;;;;;16.10;93740.00;;;;7381413;19;20164;-75
2023/09/18 10:16:47;;;;;;;4.63;1.42;;;;;16.20;93739.00;;;;7384966;19;20171;-74
2023/09/18 10:19:39;;;;;;;2.53;1.10;;;;;16.20;93739.00;;;;7385504;19;20543;-74
2023/09/18 10:22:32;;;;;;;2.38;1.20;;;;;16.30;93752.00;;;;7385096;19;20742;-76
2023/09/18 10:25:22;;;;;;;2.45;1.08;;;;;16.40;93770.00;;;;7384581;19;20161;-75
2023/09/18 10:27:53;;;;;;;1.88;1.15;;;;;16.30;93774.00;;;;7385653;19;20216;-74
2023/09/18 10:30:29;;;;;;;3.00;1.10;;;;;16.30;93772.00;;;;7384359;19;20677;-76
2023/09/18 10:33:07;;;;;;;1.38;1.00;;;;;16.30;93772.00;;;;7384039;19;20136;-77
2023/09/18 10:35:42;;;;;;;1.60;1.13;;;;;16.40;93770.00;;;;7379356;19;20148;-76
2023/09/18 10:38:24;;;;;;;3.67;1.13;;;;;16.20;93776.00;;;;7381569;19;20172;-77
2023/09/18 10:41:00;;;;;;;2.22;1.30;;;;;16.30;93763.00;;;;7380473;19;20991;-75
2023/09/18 10:43:35;;;;;;;1.30;1.10;;;;;16.40;93763.00;;;;7376804;19;20154;-76
2023/09/18 10:46:03;;;;;;;1.35;1.02;;;;;16.50;93769.00;;;;7384767;19;20136;-77
2023/09/18 10:48:41;;;;;;;1.17;0.80;;;;;16.40;93760.00;;;;7387977;19;20161;-76
2023/09/18 10:51:13;;;;;;;2.63;1.35;;;;;16.40;93754.00;;;;7380304;19;20133;-76
2023/09/18 10:53:49;;;;;;;3.83;1.10;;;;;16.60;93753.00;;;;7386726;19;20607;-77
2023/09/18 10:56:17;;;;;;;2.72;1.35;;;;;16.60;93746.00;;;;7388059;19;20144;-77
2023/09/18 10:59:02;;;;;;;2.20;1.30;;;;;16.70;93754.00;;;;7389014;19;20227;-74
2023/09/18 11:01:30;;;;;;;4.82;1.23;;;;;16.80;93756.00;;;;7384432;19;20172;-75
2023/09/18 11:04:10;;;;;;;4.53;1.27;;;;;17.00;93754.00;;;;7387700;19;20151;-75
2023/09/18 11:06:54;;;;;;;5.32;1.40;;;;;17.00;93762.00;;;;7379976;19;20167;-76
2023/09/18 11:09:31;;;;;;;2.70;1.00;;;;;17.20;93763.00;;;;7386431;19;20136;-77
2023/09/18 11:12:02;;;;;;;5.20;1.33;;;;;17.10;93757.00;;;;7391208;19;20188;-77
2023/09/18 11:14:55;;;;;;;2.15;1.10;;;;;17.10;93764.00;;;;7389096;19;20572;-78
2023/09/18 11:17:39;;;;;;;3.83;1.35;;;;;17.20;93765.00;;;;7386347;19;20956;-76
2023/09/18 11:20:20;;;;;;;2.83;1.40;;;;;17.30;93754.00;;;;7385256;19;20152;-76
2023/09/18 11:22:49;;;;;;;2.13;1.20;;;;;17.30;93753.00;;;;7386566;19;20163;-74
2023/09/18 11:25:51;;;;;;;2.67;1.35;;;;;17.30;93757.00;;;;7386997;19;20575;-78
2023/09/18 11:28:26;;;;;;;2.05;1.20;;;;;17.30;93764.00;;;;7389198;19;20463;-75
2023/09/18 11:31:03;;;;;;;4.03;1.20;;;;;17.20;93776.00;;;;7385760;19;20147;-76
2023/09/18 11:33:40;;;;;;;4.22;1.17;;;;;17.30;93784.00;;;;7387580;19;20163;-76
2023/09/18 11:36:29;;;;;;;3.25;1.10;;;;;17.40;93795.00;;;;7384022;19;20223;-78
2023/09/18 11:39:11;;;;;;;2.15;1.13;;;;;17.50;93788.00;;;;7387531;19;20722;-74
2023/09/18 11:41:39;;;;;;;2.58;1.10;;;;;17.60;93790.00;;;;7388337;19;20513;-76
2023/09/18 11:44:16;;;;;;;1.77;0.98;;;;;17.40;93795.00;;;;7387274;19;20207;-74
2023/09/18 11:46:51;;;;;;;3.80;1.13;;;;;17.30;93790.00;;;;7386188;19;20144;-75
2023/09/18 11:49:27;;;;;;;6.53;1.20;;;;;17.40;93787.00;;;;7389673;19;20133;-76
2023/09/18 11:52:03;;;;;;;2.35;1.20;;;;;17.40;93788.00;;;;7388290;19;20148;-77
2023/09/18 11:54:41;;;;;;;1.67;1.30;;;;;17.70;93778.00;;;;7387333;19;20137;-76
2023/09/18 11:57:09;;;;;;;1.92;1.20;;;;;17.70;93784.00;;;;7383803;19;20144;-76
2023/09/18 11:59:47;;;;;;;2.15;1.20;;;;;17.90;93772.00;;;;7391578;19;20163;-76
2023/09/18 12:02:28;;;;;;;1.40;1.30;;;;;18.00;93770.00;;;;7385502;19;20166;-74
2023/09/18 12:05:15;;;;;;;4.35;1.38;;;;;18.20;93769.00;;;;7382383;19;20170;-76
2023/09/18 12:07:50;;;;;;;5.18;1.50;;;;;18.30;93768.00;;;;7385606;19;20145;-75
2023/09/18 12:10:28;;;;;;;3.20;1.30;;;;;18.50;93766.00;;;;7386588;19;20148;-77
2023/09/18 12:12:55;;;;;;;4.72;1.30;;;;;18.20;93763.00;;;;7386549;19;20650;-77
2023/09/18 12:15:33;;;;;;;2.90;1.30;;;;;18.50;93759.00;;;;7385717;19;20152;-75
2023/09/18 12:18:14;;;;;;;3.58;1.20;;;;;18.50;93750.00;;;;7384997;19;21465;-76
2023/09/18 12:20:47;;;;;;;3.00;1.48;;;;;18.60;93756.00;;;;7387635;19;20136;-76
2023/09/18 12:23:21;;;;;;;2.30;1.20;;;;;18.90;93751.00;;;;7384484;19;20475;-75
2023/09/18 12:26:01;;;;;;;1.90;1.30;;;;;18.70;93760.00;;;;7386214;19;20136;-76
2023/09/18 12:28:31;;;;;;;3.05;1.17;;;;;19.00;93761.00;;;;7387058;19;20151;-77
2023/09/18 12:31:09;;;;;;;3.60;1.30;;;;;19.30;93752.00;;;;7387387;19;20192;-74
2023/09/18 12:33:46;;;;;;;1.52;1.23;;;;;19.40;93747.00;;;;7384483;19;20143;-76
2023/09/18 12:36:25;;;;;;;2.38;1.27;;;;;19.70;93750.00;;;;7386489;19;20149;-76
2023/09/18 12:39:03;;;;;;;4.75;1.30;;;;;19.80;93754.00;;;;7385795;19;20152;-74
2023/09/18 12:41:38;;;;;;;2.53;1.20;;;;;20.10;93752.00;;;;7384319;19;20140;-77
2023/09/18 12:44:07;;;;;;;3.30;1.42;;;;;20.40;93749.00;;;;7383093;19;20672;-77
2023/09/18 12:46:44;;;;;;;1.15;1.05;;;;;20.50;93748.00;;;;7385105;19;20171;-73
2023/09/18 12:49:20;;;;;;;3.90;1.60;;;;;20.60;93742.00;;;;7381120;19;20154;-75
2023/09/18 12:51:59;;;;;;;1.75;1.23;;;;;20.70;93736.00;;;;7383446;19;20137;-76
2023/09/18 12:54:45;;;;;;;3.40;1.30;;;;;20.50;93734.00;;;;7382762;19;20137;-74